createdAt,value
2018-01-16T00:00:15.840Z,25.08
2018-01-16T00:00:49.528Z,23.67
2018-01-16T00:01:23.212Z,27.75
2018-01-16T00:01:56.906Z,20.65
2018-01-16T00:02:30.597Z,25.75
2018-01-16T00:03:04.306Z,25.73
2018-01-16T00:03:37.977Z,24.80
2018-01-16T00:04:11.646Z,26.95
2018-01-16T00:04:45.322Z,22.98
2018-01-16T00:05:18.999Z,23.23
2018-01-16T00:05:53.459Z,25.00
2018-01-16T00:06:26.830Z,27.48
2018-01-16T00:07:00.523Z,22.80
2018-01-16T00:07:34.210Z,25.92
2018-01-16T00:08:08.288Z,24.90
2018-01-16T00:08:41.973Z,24.55
2018-01-16T00:09:15.644Z,23.92
2018-01-16T00:09:50.097Z,26.95
2018-01-16T00:10:23.771Z,29.33
2018-01-16T00:10:57.462Z,27.00
2018-01-16T00:11:31.138Z,23.92
2018-01-16T00:12:05.241Z,28.50
2018-01-16T00:12:38.918Z,25.37
2018-01-16T00:13:13.395Z,25.52
2018-01-16T00:13:47.062Z,25.05
2018-01-16T00:14:20.754Z,27.02
2018-01-16T00:14:54.427Z,27.00
2018-01-16T00:15:28.154Z,24.50
2018-01-16T00:16:01.843Z,24.45
2018-01-16T00:16:35.519Z,25.48
2018-01-16T00:17:09.186Z,24.10
2018-01-16T00:17:42.863Z,26.00
2018-01-16T00:18:16.570Z,27.83
2018-01-16T00:18:50.254Z,25.25
2018-01-16T00:19:23.925Z,25.50
2018-01-16T00:19:57.594Z,23.55
2018-01-16T00:20:31.257Z,26.15
2018-01-16T00:21:04.933Z,27.40
2018-01-16T00:21:38.617Z,24.33
2018-01-16T00:22:11.615Z,22.42
2018-01-16T00:22:45.274Z,25.65
2018-01-16T00:23:18.988Z,25.45
2018-01-16T00:23:52.655Z,29.52
2018-01-16T00:24:26.326Z,22.75
2018-01-16T00:25:00.010Z,29.10
2018-01-16T00:25:33.695Z,26.08
2018-01-16T00:26:07.404Z,25.12
2018-01-16T00:26:41.076Z,25.42
2018-01-16T00:27:14.753Z,24.05
2018-01-16T00:27:49.211Z,24.17
2018-01-16T00:28:22.927Z,28.17
2018-01-16T00:28:56.637Z,27.13
2018-01-16T00:29:31.079Z,24.52
2018-01-16T00:30:04.430Z,26.92
2018-01-16T00:30:38.857Z,30.58
2018-01-16T00:31:12.561Z,24.80
2018-01-16T00:31:46.230Z,27.20
2018-01-16T00:32:19.925Z,24.40
2018-01-16T00:32:53.612Z,24.77
2018-01-16T00:33:27.299Z,25.65
2018-01-16T00:34:00.991Z,32.50
2018-01-16T00:34:34.661Z,24.65
2018-01-16T00:35:09.090Z,26.20
2018-01-16T00:35:42.774Z,25.52
2018-01-16T00:36:16.450Z,26.10
2018-01-16T00:36:50.876Z,28.52
2018-01-16T00:37:24.544Z,30.60
2018-01-16T00:37:58.973Z,27.17
2018-01-16T00:38:32.966Z,26.20
2018-01-16T00:39:06.637Z,28.83
2018-01-16T00:39:41.079Z,29.05
2018-01-16T00:40:14.760Z,27.35
2018-01-16T00:40:48.441Z,25.52
2018-01-16T00:41:22.125Z,31.92
2018-01-16T00:41:55.791Z,24.10
2018-01-16T00:42:30.978Z,25.60
2018-01-16T00:43:04.328Z,23.92
2018-01-16T00:43:37.387Z,23.62
2018-01-16T00:44:11.833Z,25.05
2018-01-16T00:44:45.555Z,24.17
2018-01-16T00:45:19.218Z,26.60
2018-01-16T00:45:52.881Z,26.17
2018-01-16T00:46:26.547Z,25.60
2018-01-16T00:47:00.993Z,28.73
2018-01-16T00:47:34.660Z,24.85
2018-01-16T00:48:08.349Z,34.92
2018-01-16T00:48:42.041Z,23.00
2018-01-16T00:49:15.732Z,23.58
2018-01-16T00:49:49.888Z,26.70
2018-01-16T00:50:23.572Z,25.00
2018-01-16T00:50:57.241Z,24.50
2018-01-16T00:51:30.904Z,23.95
2018-01-16T00:52:04.240Z,24.33
2018-01-16T00:52:37.956Z,24.77
2018-01-16T00:53:12.405Z,25.73
2018-01-16T00:53:46.307Z,25.00
2018-01-16T00:54:19.966Z,24.37
2018-01-16T00:54:53.639Z,27.60
2018-01-16T00:55:28.093Z,24.87
2018-01-16T00:56:01.750Z,24.70
2018-01-16T00:56:35.849Z,25.27
2018-01-16T00:57:10.291Z,22.70
2018-01-16T00:57:43.969Z,27.75
2018-01-16T00:58:17.636Z,27.23
2018-01-16T00:58:52.445Z,26.30
2018-01-16T00:59:26.889Z,24.40
2018-01-16T01:00:00.567Z,24.83
2018-01-16T01:00:34.298Z,27.92
2018-01-16T01:01:08.002Z,27.87
2018-01-16T01:01:41.685Z,23.20
2018-01-16T01:02:15.414Z,22.08
2018-01-16T01:02:49.084Z,25.08
2018-01-16T01:03:23.546Z,22.80
2018-01-16T01:03:57.469Z,24.25
2018-01-16T01:04:31.125Z,24.27
2018-01-16T01:05:04.782Z,25.67
2018-01-16T01:05:38.480Z,24.52
2018-01-16T01:06:12.167Z,22.27
2018-01-16T01:06:45.850Z,26.77
2018-01-16T01:07:19.512Z,23.02
2018-01-16T01:07:53.197Z,25.92
2018-01-16T01:08:26.868Z,23.10
2018-01-16T01:09:00.593Z,22.50
2018-01-16T01:09:35.019Z,26.17
2018-01-16T01:10:08.705Z,29.17
2018-01-16T01:10:42.391Z,21.08
2018-01-16T01:11:16.828Z,25.62
2018-01-16T01:11:50.511Z,24.02
2018-01-16T01:12:24.201Z,23.48
2018-01-16T01:12:57.870Z,22.10
2018-01-16T01:13:32.329Z,27.10
2018-01-16T01:14:06.045Z,24.33
2018-01-16T01:14:40.594Z,23.65
2018-01-16T01:15:14.266Z,21.25
2018-01-16T01:15:48.711Z,27.37
2018-01-16T01:16:22.388Z,25.98
2018-01-16T01:16:56.066Z,26.02
2018-01-16T01:17:29.742Z,24.80
2018-01-16T01:18:03.855Z,24.58
2018-01-16T01:18:37.524Z,23.05
2018-01-16T01:19:11.990Z,23.10
2018-01-16T01:19:45.317Z,23.08
2018-01-16T01:20:19.757Z,27.02
2018-01-16T01:20:53.425Z,26.00
2018-01-16T01:21:27.862Z,22.02
2018-01-16T01:22:01.542Z,25.75
2018-01-16T01:22:35.213Z,26.85
2018-01-16T01:23:08.906Z,25.40
2018-01-16T01:23:42.614Z,24.80
2018-01-16T01:24:16.593Z,23.35
2018-01-16T01:24:50.268Z,22.15
2018-01-16T01:25:24.705Z,24.90
2018-01-16T01:25:58.378Z,25.52
2018-01-16T01:26:32.069Z,23.87
2018-01-16T01:27:05.741Z,29.42
2018-01-16T01:27:40.189Z,23.60
2018-01-16T01:28:13.873Z,33.05
2018-01-16T01:28:47.530Z,25.52
2018-01-16T01:29:22.111Z,25.23
2018-01-16T01:29:55.781Z,22.40
2018-01-16T01:30:29.478Z,27.85
2018-01-16T01:31:03.165Z,25.40
2018-01-16T01:31:36.836Z,23.17
2018-01-16T01:32:10.497Z,25.95
2018-01-16T01:32:44.178Z,25.65
2018-01-16T01:33:18.610Z,28.80
2018-01-16T01:33:52.302Z,24.63
2018-01-16T01:34:26.378Z,25.92
2018-01-16T01:35:00.828Z,23.62
2018-01-16T01:35:34.501Z,27.98
2018-01-16T01:36:08.170Z,26.33
2018-01-16T01:36:41.846Z,26.48
2018-01-16T01:37:16.279Z,26.02
2018-01-16T01:37:49.958Z,25.48
2018-01-16T01:38:23.632Z,26.92
2018-01-16T01:38:58.080Z,25.83
2018-01-16T01:39:32.166Z,27.10
2018-01-16T01:40:05.511Z,27.52
2018-01-16T01:40:39.947Z,23.50
2018-01-16T01:41:13.620Z,28.15
2018-01-16T01:41:48.082Z,27.80
2018-01-16T01:42:21.768Z,26.87
2018-01-16T01:42:55.438Z,25.20
2018-01-16T01:43:29.105Z,26.35
2018-01-16T01:44:03.748Z,26.90
2018-01-16T01:44:37.620Z,29.12
2018-01-16T01:45:11.452Z,31.92
2018-01-16T01:45:45.133Z,23.92
2018-01-16T01:46:18.808Z,30.70
2018-01-16T01:46:52.157Z,31.83
2018-01-16T01:47:26.593Z,31.83
2018-01-16T01:48:00.253Z,30.70
2018-01-16T01:48:34.677Z,26.60
2018-01-16T01:49:14.258Z,30.33
2018-01-16T01:49:48.321Z,28.38
2018-01-16T01:50:21.993Z,26.85
2018-01-16T01:50:55.665Z,28.42
2018-01-16T01:51:30.089Z,25.50
2018-01-16T01:52:03.422Z,25.50
2018-01-16T01:52:37.098Z,25.62
2018-01-16T01:53:10.766Z,27.02
2018-01-16T01:53:44.438Z,27.30
2018-01-16T01:54:18.111Z,27.62
2018-01-16T01:54:52.681Z,31.10
2018-01-16T01:55:26.347Z,26.15
2018-01-16T01:56:00.005Z,26.27
2018-01-16T01:56:33.351Z,31.20
2018-01-16T01:57:07.019Z,31.40
2018-01-16T01:57:40.695Z,27.50
2018-01-16T01:58:14.350Z,26.70
2018-01-16T01:58:48.773Z,28.60
2018-01-16T01:59:22.470Z,26.65
2018-01-16T01:59:56.154Z,25.77
2018-01-16T02:00:29.821Z,23.92
2018-01-16T02:01:04.253Z,25.48
2018-01-16T02:01:37.614Z,26.20
2018-01-16T02:02:12.071Z,32.05
2018-01-16T02:02:45.759Z,27.60
2018-01-16T02:03:19.424Z,26.83
2018-01-16T02:03:53.139Z,27.23
2018-01-16T02:04:26.828Z,30.08
2018-01-16T02:05:00.545Z,29.87
2018-01-16T02:05:34.452Z,26.15
2018-01-16T02:06:08.579Z,28.50
2018-01-16T02:06:42.253Z,24.50
2018-01-16T02:07:16.678Z,27.13
2018-01-16T02:07:50.342Z,26.87
2018-01-16T02:08:24.786Z,24.50
2018-01-16T02:08:58.515Z,24.50
2018-01-16T02:09:32.185Z,29.27
2018-01-16T02:10:05.546Z,27.75
2018-01-16T02:10:39.227Z,28.58
2018-01-16T02:11:12.898Z,28.12
2018-01-16T02:11:47.356Z,27.60
2018-01-16T02:12:21.045Z,22.83
2018-01-16T02:12:54.709Z,29.77
2018-01-16T02:13:28.367Z,28.15
2018-01-16T02:14:02.030Z,27.33
2018-01-16T02:14:35.700Z,25.77
2018-01-16T02:15:09.394Z,29.25
2018-01-16T02:15:43.053Z,26.45
2018-01-16T02:16:16.733Z,27.75
2018-01-16T02:16:50.397Z,25.23
2018-01-16T02:17:24.065Z,23.92
2018-01-16T02:17:57.733Z,23.12
2018-01-16T02:18:32.506Z,28.77
2018-01-16T02:19:06.930Z,24.92
2018-01-16T02:19:39.943Z,26.40
2018-01-16T02:20:13.668Z,27.33
2018-01-16T02:20:46.989Z,27.50
2018-01-16T02:21:20.662Z,25.48
2018-01-16T02:21:54.342Z,25.60
2018-01-16T02:22:28.790Z,22.80
2018-01-16T02:23:02.455Z,29.12
2018-01-16T02:23:36.143Z,27.05
2018-01-16T02:24:09.815Z,26.50
2018-01-16T02:24:44.242Z,23.08
2018-01-16T02:25:18.209Z,24.95
2018-01-16T02:25:51.863Z,26.73
2018-01-16T02:26:25.555Z,23.15
2018-01-16T02:26:59.204Z,27.17
2018-01-16T02:27:32.878Z,26.27
2018-01-16T02:28:07.309Z,25.50
2018-01-16T02:28:40.975Z,27.77
2018-01-16T02:29:15.419Z,27.13
2018-01-16T02:29:49.091Z,22.77
2018-01-16T02:30:22.452Z,26.62
2018-01-16T02:30:56.877Z,27.70
2018-01-16T02:31:30.566Z,25.33
2018-01-16T02:32:03.898Z,26.40
2018-01-16T02:32:37.594Z,27.35
2018-01-16T02:33:11.246Z,23.35
2018-01-16T02:33:44.915Z,27.65
2018-01-16T02:34:18.579Z,25.40
2018-01-16T02:34:53.009Z,24.30
2018-01-16T02:35:26.706Z,26.75
2018-01-16T02:36:00.393Z,26.35
2018-01-16T02:36:34.086Z,24.33
2018-01-16T02:37:07.750Z,25.65
2018-01-16T02:37:42.186Z,28.20
2018-01-16T02:38:15.875Z,25.35
2018-01-16T02:38:49.561Z,23.85
2018-01-16T02:39:24.271Z,28.35
2018-01-16T02:39:57.949Z,27.73
2018-01-16T02:40:32.413Z,23.15
2018-01-16T02:41:06.098Z,25.77
2018-01-16T02:41:39.768Z,29.08
2018-01-16T02:42:13.441Z,23.50
2018-01-16T02:42:47.135Z,25.98
2018-01-16T02:43:20.905Z,22.65
2018-01-16T02:43:56.717Z,22.55
2018-01-16T02:44:30.201Z,24.30
2018-01-16T02:45:03.871Z,26.67
2018-01-16T02:45:39.822Z,24.17
2018-01-16T02:46:14.676Z,22.15
2018-01-16T02:46:48.930Z,23.75
2018-01-16T02:47:22.414Z,24.52
2018-01-16T02:47:57.627Z,24.05
2018-01-16T02:48:31.299Z,25.40
2018-01-16T02:49:05.026Z,23.80
2018-01-16T02:49:39.517Z,24.00
2018-01-16T02:50:13.007Z,28.65
2018-01-16T02:50:46.514Z,26.08
2018-01-16T02:51:20.015Z,23.40
2018-01-16T02:51:53.520Z,24.75
2018-01-16T02:52:27.785Z,23.60
2018-01-16T02:53:01.536Z,25.45
2018-01-16T02:53:35.207Z,26.80
2018-01-16T02:54:09.650Z,26.10
2018-01-16T02:54:43.162Z,23.90
2018-01-16T02:55:16.633Z,25.90
2018-01-16T02:55:50.482Z,23.70
2018-01-16T02:56:25.300Z,24.02
2018-01-16T02:57:00.125Z,28.48
2018-01-16T02:57:34.566Z,22.65
2018-01-16T02:58:08.242Z,23.55
2018-01-16T02:58:42.214Z,29.58
2018-01-16T02:59:16.710Z,27.02
2018-01-16T02:59:51.133Z,22.50
2018-01-16T03:00:24.977Z,21.55
2018-01-16T03:00:59.452Z,26.23
2018-01-16T03:01:33.114Z,23.73
2018-01-16T03:02:07.182Z,22.42
2018-01-16T03:02:40.903Z,23.55
2018-01-16T03:03:15.727Z,23.60
2018-01-16T03:03:49.453Z,21.95
2018-01-16T03:04:23.245Z,29.50
2018-01-16T03:04:57.021Z,25.20
2018-01-16T03:05:30.689Z,22.80
2018-01-16T03:06:04.413Z,25.05
2018-01-16T03:06:38.116Z,28.75
2018-01-16T03:07:11.794Z,26.02
2018-01-16T03:07:45.468Z,24.40
2018-01-16T03:08:19.170Z,23.83
2018-01-16T03:08:52.927Z,25.98
2018-01-16T03:09:27.393Z,25.15
2018-01-16T03:10:01.071Z,25.20
2018-01-16T03:10:34.762Z,26.40
2018-01-16T03:11:08.475Z,25.65
2018-01-16T03:11:42.133Z,24.15
2018-01-16T03:12:15.844Z,23.80
2018-01-16T03:12:49.517Z,27.15
2018-01-16T03:13:23.184Z,26.05
2018-01-16T03:13:56.853Z,28.15
2018-01-16T03:14:31.294Z,28.80
2018-01-16T03:15:04.946Z,26.70
2018-01-16T03:15:39.382Z,25.15
2018-01-16T03:16:13.089Z,27.60
2018-01-16T03:16:46.775Z,27.05
2018-01-16T03:17:20.445Z,26.90
2018-01-16T03:17:54.114Z,28.12
2018-01-16T03:18:28.556Z,26.33
2018-01-16T03:19:02.231Z,24.55
2018-01-16T03:19:35.899Z,26.05
2018-01-16T03:20:10.352Z,27.73
2018-01-16T03:20:44.082Z,28.15
2018-01-16T03:21:18.916Z,27.33
2018-01-16T03:21:52.681Z,24.15
2018-01-16T03:22:27.134Z,27.52
2018-01-16T03:23:00.845Z,25.37
2018-01-16T03:23:34.513Z,23.95
2018-01-16T03:24:08.182Z,25.75
2018-01-16T03:24:42.630Z,22.92
2018-01-16T03:25:16.300Z,26.85
2018-01-16T03:25:49.969Z,27.98
2018-01-16T03:26:24.437Z,20.42
2018-01-16T03:26:58.117Z,22.35
2018-01-16T03:27:31.794Z,23.65
2018-01-16T03:28:05.465Z,24.40
2018-01-16T03:28:39.183Z,29.65
2018-01-16T03:29:12.862Z,24.70
2018-01-16T03:29:46.542Z,28.08
2018-01-16T03:30:20.224Z,24.85
2018-01-16T03:30:53.897Z,24.80
2018-01-16T03:31:28.716Z,27.05
2018-01-16T03:32:02.398Z,31.10
2018-01-16T03:32:36.830Z,22.98
2018-01-16T03:33:10.498Z,24.02
2018-01-16T03:33:44.922Z,22.85
2018-01-16T03:34:18.762Z,23.42
2018-01-16T03:34:52.456Z,25.05
2018-01-16T03:35:26.130Z,23.80
2018-01-16T03:35:59.802Z,23.42
2018-01-16T03:36:33.527Z,21.10
2018-01-16T03:37:07.190Z,24.80
2018-01-16T03:37:40.869Z,23.17
2018-01-16T03:38:14.544Z,25.45
2018-01-16T03:38:48.217Z,23.20
2018-01-16T03:39:22.659Z,23.20
2018-01-16T03:39:56.345Z,22.10
2018-01-16T03:40:30.041Z,21.85
2018-01-16T03:41:03.728Z,22.27
2018-01-16T03:41:37.791Z,20.92
2018-01-16T03:42:12.229Z,19.15
2018-01-16T03:42:45.913Z,19.80
2018-01-16T03:43:19.597Z,21.83
2018-01-16T03:43:53.496Z,21.02
2018-01-16T03:44:27.269Z,20.60
2018-01-16T03:45:00.939Z,20.05
2018-01-16T03:45:35.398Z,20.45
2018-01-16T03:46:08.743Z,18.60
2018-01-16T03:46:42.481Z,18.80
2018-01-16T03:47:16.159Z,19.27
2018-01-16T03:47:49.850Z,18.50
2018-01-16T03:48:23.553Z,17.87
2018-01-16T03:48:57.233Z,16.37
2018-01-16T03:49:30.920Z,19.67
2018-01-16T03:50:04.260Z,18.90
2018-01-16T03:50:38.693Z,17.40
2018-01-16T03:51:12.381Z,18.83
2018-01-16T03:51:46.071Z,16.65
2018-01-16T03:52:19.765Z,16.45
2018-01-16T03:52:53.435Z,17.65
2018-01-16T03:53:27.122Z,16.05
2018-01-16T03:54:00.796Z,16.48
2018-01-16T03:54:35.241Z,16.85
2018-01-16T03:55:08.927Z,16.25
2018-01-16T03:55:42.616Z,16.17
2018-01-16T03:56:16.318Z,14.20
2018-01-16T03:56:50.406Z,15.45
2018-01-16T03:57:24.080Z,15.10
2018-01-16T03:57:57.763Z,16.60
2018-01-16T03:58:32.188Z,14.48
2018-01-16T03:59:05.868Z,15.02
2018-01-16T03:59:41.270Z,13.85
2018-01-16T04:00:15.719Z,13.65
2018-01-16T04:00:49.412Z,13.88
2018-01-16T04:01:23.081Z,13.75
2018-01-16T04:01:56.791Z,16.30
2018-01-16T04:02:30.470Z,13.50
2018-01-16T04:03:04.177Z,13.48
2018-01-16T04:03:38.685Z,14.38
2018-01-16T04:04:12.370Z,13.62
2018-01-16T04:04:46.025Z,12.02
2018-01-16T04:05:20.472Z,15.50
2018-01-16T04:05:54.149Z,14.32
2018-01-16T04:06:27.825Z,13.30
2018-01-16T04:07:02.323Z,12.80
2018-01-16T04:07:36.769Z,16.05
2018-01-16T04:08:10.443Z,13.90
2018-01-16T04:08:44.117Z,15.45
2018-01-16T04:09:18.555Z,12.88
2018-01-16T04:09:52.280Z,12.60
2018-01-16T04:10:25.976Z,13.35
2018-01-16T04:10:59.646Z,12.48
2018-01-16T04:11:33.310Z,13.38
2018-01-16T04:12:07.000Z,12.37
2018-01-16T04:12:40.691Z,12.50
2018-01-16T04:13:14.441Z,11.75
2018-01-16T04:13:48.930Z,15.77
2018-01-16T04:14:22.602Z,11.85
2018-01-16T04:14:56.277Z,13.15
2018-01-16T04:15:30.788Z,13.75
2018-01-16T04:16:04.469Z,13.85
2018-01-16T04:16:37.974Z,12.68
2018-01-16T04:17:11.665Z,11.93
2018-01-16T04:17:45.330Z,11.90
2018-01-16T04:18:18.981Z,12.68
2018-01-16T04:18:53.413Z,11.98
2018-01-16T04:19:26.897Z,13.25
2018-01-16T04:20:00.614Z,10.70
2018-01-16T04:20:34.282Z,12.48
2018-01-16T04:21:07.942Z,10.68
2018-01-16T04:21:42.393Z,12.18
2018-01-16T04:22:16.083Z,12.60
2018-01-16T04:22:49.755Z,13.57
2018-01-16T04:23:23.422Z,11.48
2018-01-16T04:23:57.610Z,10.88
2018-01-16T04:24:31.297Z,11.52
2018-01-16T04:25:04.986Z,11.12
2018-01-16T04:25:38.677Z,11.55
2018-01-16T04:26:12.341Z,11.77
2018-01-16T04:26:46.005Z,11.38
2018-01-16T04:27:19.965Z,11.73
2018-01-16T04:27:53.642Z,11.18
2018-01-16T04:28:27.330Z,10.32
2018-01-16T04:29:01.022Z,10.15
2018-01-16T04:29:34.688Z,10.85
2018-01-16T04:30:08.406Z,12.95
2018-01-16T04:30:42.173Z,11.90
2018-01-16T04:31:15.834Z,11.95
2018-01-16T04:31:49.511Z,13.90
2018-01-16T04:32:23.413Z,9.63
2018-01-16T04:32:57.090Z,11.63
2018-01-16T04:33:31.542Z,12.02
2018-01-16T04:34:05.188Z,11.48
2018-01-16T04:34:39.716Z,11.57
2018-01-16T04:35:13.401Z,10.60
2018-01-16T04:35:47.074Z,10.95
2018-01-16T04:36:21.486Z,9.65
2018-01-16T04:36:55.151Z,9.55
2018-01-16T04:37:29.621Z,10.82
2018-01-16T04:38:03.277Z,9.18
2018-01-16T04:38:37.375Z,9.82
2018-01-16T04:39:11.037Z,9.35
2018-01-16T04:39:45.482Z,10.10
2018-01-16T04:40:19.153Z,11.45
2018-01-16T04:40:53.564Z,10.45
2018-01-16T04:41:27.226Z,11.77
2018-01-16T04:42:00.888Z,9.90
2018-01-16T04:42:34.363Z,13.35
2018-01-16T04:43:08.016Z,10.13
2018-01-16T04:43:41.676Z,11.77
2018-01-16T04:44:15.332Z,10.52
2018-01-16T04:44:49.091Z,11.48
2018-01-16T04:45:22.759Z,9.95
2018-01-16T04:45:57.188Z,10.27
2018-01-16T04:46:30.842Z,10.50
2018-01-16T04:47:04.499Z,11.43
2018-01-16T04:47:38.483Z,10.55
2018-01-16T04:48:12.154Z,11.68
2018-01-16T04:48:45.828Z,9.80
2018-01-16T04:49:20.253Z,10.18
2018-01-16T04:49:54.237Z,10.50
2018-01-16T04:50:27.910Z,10.20
2018-01-16T04:51:01.566Z,9.55
2018-01-16T04:51:34.945Z,10.55
2018-01-16T04:52:08.596Z,10.35
2018-01-16T04:52:42.259Z,9.48
2018-01-16T04:53:15.911Z,8.30
2018-01-16T04:53:49.573Z,10.20
2018-01-16T04:54:23.239Z,10.48
2018-01-16T04:54:57.645Z,10.50
2018-01-16T04:55:32.072Z,11.00
2018-01-16T04:56:05.784Z,11.48
2018-01-16T04:56:39.435Z,10.13
2018-01-16T04:57:13.854Z,9.25
2018-01-16T04:57:47.537Z,10.15
2018-01-16T04:58:21.202Z,11.07
2018-01-16T04:58:54.857Z,10.30
2018-01-16T04:59:28.510Z,8.98
2018-01-16T05:00:02.271Z,10.15
2018-01-16T05:00:35.943Z,12.37
2018-01-16T05:01:09.610Z,10.10
2018-01-16T05:01:43.277Z,10.65
2018-01-16T05:02:16.949Z,11.00
2018-01-16T05:02:50.636Z,8.73
2018-01-16T05:03:24.717Z,9.27
2018-01-16T05:03:58.372Z,8.80
2018-01-16T05:04:31.703Z,8.77
2018-01-16T05:05:06.127Z,9.02
2018-01-16T05:05:39.781Z,9.05
2018-01-16T05:06:13.185Z,9.30
2018-01-16T05:06:47.610Z,10.07
2018-01-16T05:07:21.261Z,11.65
2018-01-16T05:07:56.080Z,10.75
2018-01-16T05:08:29.745Z,9.90
2018-01-16T05:09:02.898Z,11.70
2018-01-16T05:09:36.549Z,9.60
2018-01-16T05:10:10.959Z,8.65
2018-01-16T05:10:45.375Z,9.73
2018-01-16T05:11:19.021Z,10.20
2018-01-16T05:11:54.179Z,10.32
2018-01-16T05:12:28.617Z,8.13
2018-01-16T05:13:02.362Z,9.00
2018-01-16T05:13:36.017Z,8.90
2018-01-16T05:14:09.667Z,8.55
2018-01-16T05:14:43.341Z,9.38
2018-01-16T05:15:17.761Z,10.35
2018-01-16T05:15:52.174Z,9.80
2018-01-16T05:16:25.846Z,12.18
2018-01-16T05:17:00.267Z,11.65
2018-01-16T05:17:33.941Z,10.55
2018-01-16T05:18:08.417Z,9.05
2018-01-16T05:18:42.088Z,10.02
2018-01-16T05:19:15.730Z,8.90
2018-01-16T05:19:50.149Z,10.20
2018-01-16T05:20:23.481Z,9.63
2018-01-16T05:20:57.158Z,8.18
2018-01-16T05:21:30.829Z,10.43
2018-01-16T05:22:04.485Z,8.88
2018-01-16T05:22:38.906Z,8.15
2018-01-16T05:23:12.648Z,11.30
2018-01-16T05:23:46.325Z,10.15
2018-01-16T05:24:20.007Z,11.63
2018-01-16T05:24:53.665Z,7.87
2018-01-16T05:25:27.319Z,9.20
2018-01-16T05:26:00.981Z,11.10
2018-01-16T05:26:35.245Z,10.15
2018-01-16T05:27:08.910Z,10.20
2018-01-16T05:27:42.560Z,9.45
2018-01-16T05:28:16.239Z,8.32
2018-01-16T05:28:49.902Z,9.20
2018-01-16T05:29:23.561Z,8.07
2018-01-16T05:29:57.217Z,9.45
2018-01-16T05:30:30.877Z,8.65
2018-01-16T05:31:04.214Z,7.78
2018-01-16T05:31:39.374Z,10.18
2018-01-16T05:32:13.787Z,7.80
2018-01-16T05:32:47.442Z,8.15
2018-01-16T05:33:21.047Z,8.18
2018-01-16T05:33:55.471Z,8.93
2018-01-16T05:34:29.134Z,10.52
2018-01-16T05:35:03.566Z,10.13
2018-01-16T05:35:37.240Z,9.07
2018-01-16T05:36:11.650Z,7.65
2018-01-16T05:36:46.064Z,8.60
2018-01-16T05:37:20.497Z,7.90
2018-01-16T05:37:54.154Z,11.75
2018-01-16T05:38:28.603Z,8.60
2018-01-16T05:39:02.276Z,9.15
2018-01-16T05:39:35.921Z,9.38
2018-01-16T05:40:09.602Z,7.72
2018-01-16T05:40:43.250Z,7.68
2018-01-16T05:41:16.917Z,10.10
2018-01-16T05:41:51.337Z,7.70
2018-01-16T05:42:24.811Z,10.43
2018-01-16T05:42:58.455Z,7.85
2018-01-16T05:43:32.145Z,8.25
2018-01-16T05:44:05.797Z,8.10
2018-01-16T05:44:39.456Z,7.93
2018-01-16T05:45:13.872Z,8.10
2018-01-16T05:45:47.551Z,9.13
2018-01-16T05:46:21.804Z,8.05
2018-01-16T05:46:55.636Z,8.95
2018-01-16T05:47:29.274Z,7.40
2018-01-16T05:48:02.942Z,8.05
2018-01-16T05:48:36.464Z,7.85
2018-01-16T05:49:10.121Z,9.13
2018-01-16T05:49:43.799Z,8.05
2018-01-16T05:50:17.277Z,8.93
2018-01-16T05:50:51.703Z,7.80
2018-01-16T05:51:25.163Z,7.22
2018-01-16T05:51:59.402Z,8.43
2018-01-16T05:52:32.889Z,7.70
2018-01-16T05:53:06.566Z,7.37
2018-01-16T05:53:40.282Z,10.00
2018-01-16T05:54:13.942Z,8.38
2018-01-16T05:54:47.594Z,7.78
2018-01-16T05:55:22.059Z,7.82
2018-01-16T05:55:55.767Z,8.27
2018-01-16T05:56:29.523Z,9.15
2018-01-16T05:57:03.074Z,8.68
2018-01-16T05:57:36.864Z,8.18
2018-01-16T05:58:11.395Z,8.55
2018-01-16T05:58:45.089Z,8.45
2018-01-16T05:59:18.779Z,8.98
2018-01-16T05:59:52.460Z,10.13
2018-01-16T06:00:26.914Z,9.73
2018-01-16T06:01:00.577Z,8.80
2018-01-16T06:01:34.248Z,17.02
2018-01-16T06:02:08.663Z,8.98
2018-01-16T06:02:42.324Z,8.60
2018-01-16T06:03:15.988Z,7.05
2018-01-16T06:03:50.055Z,9.40
2018-01-16T06:04:23.754Z,8.98
2018-01-16T06:04:57.443Z,8.38
2018-01-16T06:05:31.112Z,7.93
2018-01-16T06:06:04.865Z,7.70
2018-01-16T06:06:38.521Z,7.32
2018-01-16T06:07:12.202Z,8.50
2018-01-16T06:07:45.910Z,8.50
2018-01-16T06:08:19.578Z,6.95
2018-01-16T06:08:53.293Z,10.43
2018-01-16T06:09:27.101Z,8.75
2018-01-16T06:10:00.782Z,7.35
2018-01-16T06:10:34.457Z,9.73
2018-01-16T06:11:08.098Z,7.78
2018-01-16T06:11:42.526Z,10.20
2018-01-16T06:12:16.221Z,9.40
2018-01-16T06:12:49.884Z,8.82
2018-01-16T06:13:24.322Z,9.75
2018-01-16T06:13:58.002Z,8.10
2018-01-16T06:14:32.863Z,7.93
2018-01-16T06:15:06.528Z,8.45
2018-01-16T06:15:40.202Z,8.95
2018-01-16T06:16:13.886Z,8.15
2018-01-16T06:16:47.562Z,9.48
2018-01-16T06:17:21.247Z,10.93
2018-01-16T06:17:55.669Z,9.77
2018-01-16T06:18:29.310Z,9.57
2018-01-16T06:19:03.001Z,8.57
2018-01-16T06:19:36.644Z,7.80
2018-01-16T06:20:10.311Z,9.30
2018-01-16T06:20:44.770Z,10.77
2018-01-16T06:21:18.429Z,8.55
2018-01-16T06:21:52.117Z,8.02
2018-01-16T06:22:25.786Z,8.98
2018-01-16T06:23:00.210Z,9.25
2018-01-16T06:23:33.873Z,9.90
2018-01-16T06:24:07.659Z,8.20
2018-01-16T06:24:41.320Z,8.27
2018-01-16T06:25:14.998Z,9.27
2018-01-16T06:25:48.669Z,8.52
2018-01-16T06:26:22.337Z,10.38
2018-01-16T06:26:56.766Z,9.60
2018-01-16T06:27:30.418Z,6.85
2018-01-16T06:28:04.837Z,8.77
2018-01-16T06:28:39.263Z,7.40
2018-01-16T06:29:12.979Z,7.12
2018-01-16T06:29:46.643Z,9.43
2018-01-16T06:30:20.294Z,8.57
2018-01-16T06:30:53.950Z,8.80
2018-01-16T06:31:27.617Z,9.07
2018-01-16T06:32:01.271Z,7.75
2018-01-16T06:32:35.690Z,7.65
2018-01-16T06:33:09.778Z,9.10
2018-01-16T06:33:44.234Z,7.25
2018-01-16T06:34:17.905Z,7.03
2018-01-16T06:34:51.575Z,7.30
2018-01-16T06:35:26.011Z,8.80
2018-01-16T06:36:01.548Z,8.40
2018-01-16T06:36:36.041Z,8.23
2018-01-16T06:37:09.896Z,9.77
2018-01-16T06:37:44.350Z,8.82
2018-01-16T06:38:18.014Z,7.05
2018-01-16T06:38:52.818Z,7.62
2018-01-16T06:39:27.288Z,8.23
2018-01-16T06:40:00.941Z,8.05
2018-01-16T06:40:34.601Z,7.97
2018-01-16T06:41:07.934Z,9.25
2018-01-16T06:41:41.602Z,9.30
2018-01-16T06:42:15.289Z,9.25
2018-01-16T06:42:48.955Z,10.18
2018-01-16T06:43:23.394Z,10.50
2018-01-16T06:43:57.040Z,7.00
2018-01-16T06:44:31.489Z,17.60
2018-01-16T06:45:05.145Z,9.80
2018-01-16T06:45:38.809Z,9.27
2018-01-16T06:46:12.470Z,10.15
2018-01-16T06:46:46.129Z,8.40
2018-01-16T06:47:20.553Z,8.10
2018-01-16T06:47:54.221Z,10.35
2018-01-16T06:48:28.633Z,9.23
2018-01-16T06:49:03.055Z,8.70
2018-01-16T06:49:36.769Z,8.98
2018-01-16T06:50:10.451Z,10.50
2018-01-16T06:50:44.123Z,9.52
2018-01-16T06:51:17.795Z,10.40
2018-01-16T06:51:52.217Z,10.25
2018-01-16T06:52:25.874Z,8.25
2018-01-16T06:52:59.533Z,10.65
2018-01-16T06:53:33.202Z,9.52
2018-01-16T06:54:06.857Z,7.95
2018-01-16T06:54:41.304Z,9.10
2018-01-16T06:55:14.994Z,9.30
2018-01-16T06:55:48.686Z,10.73
2018-01-16T06:56:23.175Z,11.12
2018-01-16T06:56:56.832Z,10.75
2018-01-16T06:57:31.265Z,10.15
2018-01-16T06:58:04.974Z,10.38
2018-01-16T06:58:38.667Z,10.30
2018-01-16T06:59:12.354Z,10.18
2018-01-16T06:59:46.042Z,8.73
2018-01-16T07:00:19.731Z,12.23
2018-01-16T07:00:53.394Z,9.48
2018-01-16T07:01:27.063Z,10.63
2018-01-16T07:02:00.719Z,9.65
2018-01-16T07:02:34.373Z,9.52
2018-01-16T07:03:08.029Z,11.43
2018-01-16T07:03:41.690Z,12.10
2018-01-16T07:04:15.354Z,11.88
2018-01-16T07:04:49.054Z,12.57
2018-01-16T07:05:22.717Z,11.50
2018-01-16T07:05:56.376Z,12.98
2018-01-16T07:06:30.063Z,10.70
2018-01-16T07:07:04.164Z,10.35
2018-01-16T07:07:37.825Z,11.05
2018-01-16T07:08:11.494Z,10.35
2018-01-16T07:08:45.170Z,12.70
2018-01-16T07:09:18.832Z,10.82
2018-01-16T07:09:53.293Z,12.43
2018-01-16T07:10:26.961Z,12.05
2018-01-16T07:11:00.611Z,10.82
2018-01-16T07:11:35.050Z,10.70
2018-01-16T07:12:08.718Z,10.82
2018-01-16T07:12:43.166Z,10.57
2018-01-16T07:13:16.833Z,12.18
2018-01-16T07:13:50.496Z,15.05
2018-01-16T07:14:24.144Z,9.95
2018-01-16T07:14:57.854Z,13.95
2018-01-16T07:15:31.526Z,10.75
2018-01-16T07:16:05.198Z,10.32
2018-01-16T07:16:38.896Z,12.15
2018-01-16T07:17:12.566Z,12.57
2018-01-16T07:17:46.218Z,12.60
2018-01-16T07:18:20.646Z,12.52
2018-01-16T07:18:54.337Z,10.90
2018-01-16T07:19:28.002Z,10.25